Terminal Aerodrome Forecast
Issued by NWS Medford, OR

Home | Current Version | Previous Version | Text Only | Print | Product List | Glossary On
Versions: 1 2 3 4 5 6 7 8 9 10 11 12 13 14 15 16 17
000
FTUS46 KMFR 131100
TAFMFR
TAF
KMFR 131139Z 1312/1412 VRB03KT P6SM BKN150
     FM132200 33012G20KT P6SM SCT080 BKN120
     FM140400 35005KT P6SM SKC=

USA.gov is the U.S. government's official web portal to all federal, state and local government web resources and services.